sensor_id;sensor_type;location;lat;lon;timestamp;P1;durP1;ratioP1;P2;durP2;ratioP2
13592;SDS011;6867;50.998;4.250;2022-07-06T00:01:43;5.53;;;3.60;;
13592;SDS011;6867;50.998;4.250;2022-07-06T00:04:10;7.40;;;3.60;;
13592;SDS011;6867;50.998;4.250;2022-07-06T00:06:36;4.43;;;3.37;;
13592;SDS011;6867;50.998;4.250;2022-07-06T00:09:04;4.03;;;3.57;;
13592;SDS011;6867;50.998;4.250;2022-07-06T00:11:31;5.13;;;3.43;;
13592;SDS011;6867;50.998;4.250;2022-07-06T00:13:58;5.50;;;3.43;;
13592;SDS011;6867;50.998;4.250;2022-07-06T00:16:26;5.03;;;3.10;;
13592;SDS011;6867;50.998;4.250;2022-07-06T00:18:53;6.03;;;3.80;;
13592;SDS011;6867;50.998;4.250;2022-07-06T00:21:20;5.80;;;3.83;;
13592;SDS011;6867;50.998;4.250;2022-07-06T00:23:47;6.93;;;4.00;;
13592;SDS011;6867;50.998;4.250;2022-07-06T00:26:14;4.60;;;4.00;;
13592;SDS011;6867;50.998;4.250;2022-07-06T00:28:40;6.10;;;3.70;;
13592;SDS011;6867;50.998;4.250;2022-07-06T00:31:07;6.77;;;3.80;;
13592;SDS011;6867;50.998;4.250;2022-07-06T00:33:35;8.43;;;4.40;;
13592;SDS011;6867;50.998;4.250;2022-07-06T00:36:02;7.07;;;4.00;;
13592;SDS011;6867;50.998;4.250;2022-07-06T00:38:29;6.83;;;4.10;;
13592;SDS011;6867;50.998;4.250;2022-07-06T00:40:56;5.57;;;3.77;;
13592;SDS011;6867;50.998;4.250;2022-07-06T00:43:22;6.90;;;4.67;;
13592;SDS011;6867;50.998;4.250;2022-07-06T00:45:49;5.70;;;4.10;;
13592;SDS011;6867;50.998;4.250;2022-07-06T00:48:16;5.57;;;3.90;;
13592;SDS011;6867;50.998;4.250;2022-07-06T00:50:44;6.23;;;4.17;;
13592;SDS011;6867;50.998;4.250;2022-07-06T00:53:11;5.40;;;3.77;;
13592;SDS011;6867;50.998;4.250;2022-07-06T00:55:39;5.27;;;4.20;;
13592;SDS011;6867;50.998;4.250;2022-07-06T00:58:06;5.53;;;4.47;;
13592;SDS011;6867;50.998;4.250;2022-07-06T01:00:34;5.93;;;4.20;;
13592;SDS011;6867;50.998;4.250;2022-07-06T01:03:01;4.87;;;4.10;;
13592;SDS011;6867;50.998;4.250;2022-07-06T01:05:28;6.30;;;4.37;;
13592;SDS011;6867;50.998;4.250;2022-07-06T01:07:57;4.30;;;3.70;;
13592;SDS011;6867;50.998;4.250;2022-07-06T01:10:26;6.40;;;4.23;;
13592;SDS011;6867;50.998;4.250;2022-07-06T01:12:52;6.30;;;4.07;;
13592;SDS011;6867;50.998;4.250;2022-07-06T01:15:21;5.60;;;4.20;;
13592;SDS011;6867;50.998;4.250;2022-07-06T01:17:49;5.70;;;4.00;;
13592;SDS011;6867;50.998;4.250;2022-07-06T01:20:18;6.23;;;4.40;;
13592;SDS011;6867;50.998;4.250;2022-07-06T01:22:46;4.23;;;3.63;;
13592;SDS011;6867;50.998;4.250;2022-07-06T01:25:14;4.37;;;3.47;;
13592;SDS011;6867;50.998;4.250;2022-07-06T01:27:41;5.70;;;4.23;;
13592;SDS011;6867;50.998;4.250;2022-07-06T01:30:10;5.20;;;4.13;;
13592;SDS011;6867;50.998;4.250;2022-07-06T01:32:38;4.67;;;3.97;;
13592;SDS011;6867;50.998;4.250;2022-07-06T01:35:06;5.47;;;4.30;;
13592;SDS011;6867;50.998;4.250;2022-07-06T01:37:36;6.60;;;4.43;;
13592;SDS011;6867;50.998;4.250;2022-07-06T01:40:04;5.53;;;4.20;;
13592;SDS011;6867;50.998;4.250;2022-07-06T01:42:32;7.40;;;4.10;;
13592;SDS011;6867;50.998;4.250;2022-07-06T01:44:59;6.53;;;4.47;;
13592;SDS011;6867;50.998;4.250;2022-07-06T01:47:26;7.87;;;4.37;;
13592;SDS011;6867;50.998;4.250;2022-07-06T01:49:53;5.17;;;3.80;;
13592;SDS011;6867;50.998;4.250;2022-07-06T01:52:20;5.43;;;4.50;;
13592;SDS011;6867;50.998;4.250;2022-07-06T01:54:48;6.80;;;4.00;;
13592;SDS011;6867;50.998;4.250;2022-07-06T01:57:15;5.77;;;4.10;;
13592;SDS011;6867;50.998;4.250;2022-07-06T01:59:41;7.13;;;4.17;;
13592;SDS011;6867;50.998;4.250;2022-07-06T02:02:08;5.70;;;4.37;;
13592;SDS011;6867;50.998;4.250;2022-07-06T02:04:36;6.50;;;4.63;;
13592;SDS011;6867;50.998;4.250;2022-07-06T02:07:03;7.23;;;4.80;;
13592;SDS011;6867;50.998;4.250;2022-07-06T02:09:29;4.90;;;4.13;;
13592;SDS011;6867;50.998;4.250;2022-07-06T02:11:57;7.10;;;4.83;;
13592;SDS011;6867;50.998;4.250;2022-07-06T02:14:24;6.00;;;4.60;;
13592;SDS011;6867;50.998;4.250;2022-07-06T02:16:51;4.40;;;3.50;;
13592;SDS011;6867;50.998;4.250;2022-07-06T02:19:17;8.73;;;4.90;;
13592;SDS011;6867;50.998;4.250;2022-07-06T02:21:44;8.30;;;4.70;;
13592;SDS011;6867;50.998;4.250;2022-07-06T02:24:11;4.67;;;4.27;;
13592;SDS011;6867;50.998;4.250;2022-07-06T02:26:38;8.20;;;4.40;;
13592;SDS011;6867;50.998;4.250;2022-07-06T02:29:06;5.43;;;4.37;;
13592;SDS011;6867;50.998;4.250;2022-07-06T02:31:33;6.33;;;4.60;;
13592;SDS011;6867;50.998;4.250;2022-07-06T02:34:00;6.03;;;4.33;;
13592;SDS011;6867;50.998;4.250;2022-07-06T02:36:26;6.53;;;4.67;;
13592;SDS011;6867;50.998;4.250;2022-07-06T02:38:53;6.67;;;4.27;;
13592;SDS011;6867;50.998;4.250;2022-07-06T02:41:20;5.67;;;4.43;;
13592;SDS011;6867;50.998;4.250;2022-07-06T02:43:47;6.23;;;4.70;;
13592;SDS011;6867;50.998;4.250;2022-07-06T02:46:15;4.97;;;4.10;;
13592;SDS011;6867;50.998;4.250;2022-07-06T02:48:42;4.90;;;3.87;;
13592;SDS011;6867;50.998;4.250;2022-07-06T02:51:08;8.47;;;4.83;;
13592;SDS011;6867;50.998;4.250;2022-07-06T02:53:35;7.40;;;4.40;;
13592;SDS011;6867;50.998;4.250;2022-07-06T02:56:02;6.93;;;4.83;;
13592;SDS011;6867;50.998;4.250;2022-07-06T02:58:29;6.20;;;4.60;;
13592;SDS011;6867;50.998;4.250;2022-07-06T03:00:55;7.37;;;4.70;;
13592;SDS011;6867;50.998;4.250;2022-07-06T03:03:23;6.23;;;4.27;;
13592;SDS011;6867;50.998;4.250;2022-07-06T03:05:50;6.63;;;4.50;;
13592;SDS011;6867;50.998;4.250;2022-07-06T03:08:17;5.90;;;4.60;;
13592;SDS011;6867;50.998;4.250;2022-07-06T03:10:43;7.27;;;4.97;;
13592;SDS011;6867;50.998;4.250;2022-07-06T03:13:10;7.00;;;4.60;;
13592;SDS011;6867;50.998;4.250;2022-07-06T03:15:37;7.20;;;5.40;;
13592;SDS011;6867;50.998;4.250;2022-07-06T03:18:03;8.20;;;4.90;;
13592;SDS011;6867;50.998;4.250;2022-07-06T03:20:32;6.60;;;4.50;;
13592;SDS011;6867;50.998;4.250;2022-07-06T03:22:58;7.57;;;5.00;;
13592;SDS011;6867;50.998;4.250;2022-07-06T03:25:25;6.13;;;4.50;;
13592;SDS011;6867;50.998;4.250;2022-07-06T03:27:52;8.53;;;4.87;;
13592;SDS011;6867;50.998;4.250;2022-07-06T03:30:19;7.63;;;4.40;;
13592;SDS011;6867;50.998;4.250;2022-07-06T03:32:45;5.93;;;4.53;;
13592;SDS011;6867;50.998;4.250;2022-07-06T03:35:12;7.77;;;5.17;;
13592;SDS011;6867;50.998;4.250;2022-07-06T03:37:41;6.90;;;4.13;;
13592;SDS011;6867;50.998;4.250;2022-07-06T03:40:07;6.37;;;4.57;;
13592;SDS011;6867;50.998;4.250;2022-07-06T03:42:35;6.27;;;4.50;;
13592;SDS011;6867;50.998;4.250;2022-07-06T03:45:02;8.77;;;5.37;;
13592;SDS011;6867;50.998;4.250;2022-07-06T03:47:29;8.07;;;4.80;;
13592;SDS011;6867;50.998;4.250;2022-07-06T03:49:56;8.93;;;5.27;;
13592;SDS011;6867;50.998;4.250;2022-07-06T03:52:22;6.93;;;5.07;;
13592;SDS011;6867;50.998;4.250;2022-07-06T03:54:51;9.00;;;5.43;;
13592;SDS011;6867;50.998;4.250;2022-07-06T03:57:17;7.33;;;4.90;;
13592;SDS011;6867;50.998;4.250;2022-07-06T03:59:44;6.93;;;4.53;;
13592;SDS011;6867;50.998;4.250;2022-07-06T04:02:11;7.63;;;4.70;;
13592;SDS011;6867;50.998;4.250;2022-07-06T04:04:37;6.20;;;4.70;;
13592;SDS011;6867;50.998;4.250;2022-07-06T04:07:04;6.50;;;4.73;;
13592;SDS011;6867;50.998;4.250;2022-07-06T04:09:31;6.87;;;4.67;;
13592;SDS011;6867;50.998;4.250;2022-07-06T04:11:59;7.70;;;5.10;;
13592;SDS011;6867;50.998;4.250;2022-07-06T04:14:25;6.33;;;4.80;;
13592;SDS011;6867;50.998;4.250;2022-07-06T04:16:52;7.33;;;4.93;;
13592;SDS011;6867;50.998;4.250;2022-07-06T04:19:19;7.67;;;4.77;;
13592;SDS011;6867;50.998;4.250;2022-07-06T04:21:45;5.77;;;4.53;;
13592;SDS011;6867;50.998;4.250;2022-07-06T04:24:12;7.10;;;4.80;;
13592;SDS011;6867;50.998;4.250;2022-07-06T04:26:39;9.23;;;4.77;;
13592;SDS011;6867;50.998;4.250;2022-07-06T04:29:07;8.30;;;4.30;;
13592;SDS011;6867;50.998;4.250;2022-07-06T04:31:34;7.00;;;4.67;;
13592;SDS011;6867;50.998;4.250;2022-07-06T04:34:00;6.73;;;4.80;;
13592;SDS011;6867;50.998;4.250;2022-07-06T04:36:27;7.50;;;4.70;;
13592;SDS011;6867;50.998;4.250;2022-07-06T04:38:54;9.43;;;5.33;;
13592;SDS011;6867;50.998;4.250;2022-07-06T04:41:21;8.20;;;5.57;;
13592;SDS011;6867;50.998;4.250;2022-07-06T04:43:47;7.10;;;4.70;;
13592;SDS011;6867;50.998;4.250;2022-07-06T04:46:15;6.50;;;5.17;;
13592;SDS011;6867;50.998;4.250;2022-07-06T04:48:42;4.87;;;4.27;;
13592;SDS011;6867;50.998;4.250;2022-07-06T04:51:09;7.23;;;5.07;;
13592;SDS011;6867;50.998;4.250;2022-07-06T04:53:35;6.10;;;4.43;;
13592;SDS011;6867;50.998;4.250;2022-07-06T04:56:03;6.87;;;4.50;;
13592;SDS011;6867;50.998;4.250;2022-07-06T04:58:30;6.40;;;4.97;;
13592;SDS011;6867;50.998;4.250;2022-07-06T05:00:56;8.70;;;4.30;;
13592;SDS011;6867;50.998;4.250;2022-07-06T05:03:24;7.00;;;4.30;;
13592;SDS011;6867;50.998;4.250;2022-07-06T05:05:51;6.87;;;4.57;;
13592;SDS011;6867;50.998;4.250;2022-07-06T05:08:18;6.27;;;4.70;;
13592;SDS011;6867;50.998;4.250;2022-07-06T05:10:44;7.50;;;4.77;;
13592;SDS011;6867;50.998;4.250;2022-07-06T05:13:11;6.83;;;5.43;;
13592;SDS011;6867;50.998;4.250;2022-07-06T05:15:38;6.20;;;4.67;;
13592;SDS011;6867;50.998;4.250;2022-07-06T05:18:04;7.40;;;5.07;;
13592;SDS011;6867;50.998;4.250;2022-07-06T05:20:32;7.47;;;5.22;;
13592;SDS011;6867;50.998;4.250;2022-07-06T05:22:59;7.30;;;4.07;;
13592;SDS011;6867;50.998;4.250;2022-07-06T05:25:26;7.18;;;4.85;;
13592;SDS011;6867;50.998;4.250;2022-07-06T05:27:53;5.57;;;4.75;;
13592;SDS011;6867;50.998;4.250;2022-07-06T05:30:20;6.40;;;5.20;;
13592;SDS011;6867;50.998;4.250;2022-07-06T05:32:47;10.43;;;5.40;;
13592;SDS011;6867;50.998;4.250;2022-07-06T05:35:13;9.13;;;5.80;;
13592;SDS011;6867;50.998;4.250;2022-07-06T05:37:42;10.10;;;4.95;;
13592;SDS011;6867;50.998;4.250;2022-07-06T05:40:09;5.82;;;4.32;;
13592;SDS011;6867;50.998;4.250;2022-07-06T05:42:37;10.43;;;5.15;;
13592;SDS011;6867;50.998;4.250;2022-07-06T05:45:04;9.02;;;4.45;;
13592;SDS011;6867;50.998;4.250;2022-07-06T05:47:31;7.65;;;4.90;;
13592;SDS011;6867;50.998;4.250;2022-07-06T05:50:16;8.52;;;4.38;;
13592;SDS011;6867;50.998;4.250;2022-07-06T05:52:51;6.78;;;4.30;;
13592;SDS011;6867;50.998;4.250;2022-07-06T05:55:22;5.03;;;4.35;;
13592;SDS011;6867;50.998;4.250;2022-07-06T05:57:49;7.05;;;4.85;;
13592;SDS011;6867;50.998;4.250;2022-07-06T06:00:16;5.35;;;4.18;;
13592;SDS011;6867;50.998;4.250;2022-07-06T06:02:43;6.07;;;4.40;;
13592;SDS011;6867;50.998;4.250;2022-07-06T06:05:10;5.65;;;4.07;;
13592;SDS011;6867;50.998;4.250;2022-07-06T06:07:37;6.47;;;4.53;;
13592;SDS011;6867;50.998;4.250;2022-07-06T06:10:07;9.15;;;4.72;;
13592;SDS011;6867;50.998;4.250;2022-07-06T06:12:36;7.07;;;4.97;;
13592;SDS011;6867;50.998;4.250;2022-07-06T06:15:03;10.73;;;5.45;;
13592;SDS011;6867;50.998;4.250;2022-07-06T06:17:31;7.68;;;4.95;;
13592;SDS011;6867;50.998;4.250;2022-07-06T06:19:59;15.05;;;5.38;;
13592;SDS011;6867;50.998;4.250;2022-07-06T06:22:26;9.10;;;4.55;;
13592;SDS011;6867;50.998;4.250;2022-07-06T06:24:52;6.22;;;4.88;;
13592;SDS011;6867;50.998;4.250;2022-07-06T06:27:20;10.90;;;5.40;;
13592;SDS011;6867;50.998;4.250;2022-07-06T06:29:47;6.20;;;4.32;;
13592;SDS011;6867;50.998;4.250;2022-07-06T06:32:14;7.22;;;4.65;;
13592;SDS011;6867;50.998;4.250;2022-07-06T06:34:40;5.10;;;4.13;;
13592;SDS011;6867;50.998;4.250;2022-07-06T06:37:07;6.80;;;5.18;;
13592;SDS011;6867;50.998;4.250;2022-07-06T06:39:34;6.18;;;4.82;;
13592;SDS011;6867;50.998;4.250;2022-07-06T06:42:01;6.40;;;4.68;;
13592;SDS011;6867;50.998;4.250;2022-07-06T06:44:29;9.00;;;4.97;;
13592;SDS011;6867;50.998;4.250;2022-07-06T06:46:56;7.68;;;5.18;;
13592;SDS011;6867;50.998;4.250;2022-07-06T06:49:22;5.78;;;4.38;;
13592;SDS011;6867;50.998;4.250;2022-07-06T06:51:49;6.78;;;4.97;;
13592;SDS011;6867;50.998;4.250;2022-07-06T06:54:16;10.57;;;5.82;;
13592;SDS011;6867;50.998;4.250;2022-07-06T06:56:43;11.20;;;5.50;;
13592;SDS011;6867;50.998;4.250;2022-07-06T06:59:10;9.23;;;5.47;;
13592;SDS011;6867;50.998;4.250;2022-07-06T07:01:38;6.72;;;4.80;;
13592;SDS011;6867;50.998;4.250;2022-07-06T07:04:04;7.05;;;5.72;;
13592;SDS011;6867;50.998;4.250;2022-07-06T07:06:32;8.10;;;5.47;;
13592;SDS011;6867;50.998;4.250;2022-07-06T07:08:58;6.57;;;4.18;;
13592;SDS011;6867;50.998;4.250;2022-07-06T07:11:25;8.57;;;5.03;;
13592;SDS011;6867;50.998;4.250;2022-07-06T07:13:52;6.25;;;5.28;;
13592;SDS011;6867;50.998;4.250;2022-07-06T07:16:19;6.60;;;4.95;;
13592;SDS011;6867;50.998;4.250;2022-07-06T07:18:47;5.55;;;4.35;;
13592;SDS011;6867;50.998;4.250;2022-07-06T07:21:13;7.65;;;4.80;;
13592;SDS011;6867;50.998;4.250;2022-07-06T07:23:40;5.63;;;4.30;;
13592;SDS011;6867;50.998;4.250;2022-07-06T07:26:07;7.38;;;3.65;;
13592;SDS011;6867;50.998;4.250;2022-07-06T07:28:33;4.85;;;3.53;;
13592;SDS011;6867;50.998;4.250;2022-07-06T07:31:00;4.80;;;3.67;;
13592;SDS011;6867;50.998;4.250;2022-07-06T07:33:27;5.60;;;2.88;;
13592;SDS011;6867;50.998;4.250;2022-07-06T07:35:55;4.00;;;3.05;;
13592;SDS011;6867;50.998;4.250;2022-07-06T07:38:22;4.45;;;3.38;;
13592;SDS011;6867;50.998;4.250;2022-07-06T07:40:49;6.82;;;3.42;;
13592;SDS011;6867;50.998;4.250;2022-07-06T07:43:15;5.00;;;2.33;;
13592;SDS011;6867;50.998;4.250;2022-07-06T07:45:42;4.18;;;2.33;;
13592;SDS011;6867;50.998;4.250;2022-07-06T07:48:09;4.35;;;2.78;;
13592;SDS011;6867;50.998;4.250;2022-07-06T07:50:36;4.78;;;3.00;;
13592;SDS011;6867;50.998;4.250;2022-07-06T07:53:04;4.10;;;2.67;;
13592;SDS011;6867;50.998;4.250;2022-07-06T07:55:31;3.88;;;2.20;;
13592;SDS011;6867;50.998;4.250;2022-07-06T07:57:57;6.47;;;2.30;;
13592;SDS011;6867;50.998;4.250;2022-07-06T08:00:24;6.03;;;2.63;;
13592;SDS011;6867;50.998;4.250;2022-07-06T08:02:51;2.65;;;2.03;;
13592;SDS011;6867;50.998;4.250;2022-07-06T08:05:19;5.47;;;2.60;;
13592;SDS011;6867;50.998;4.250;2022-07-06T08:07:46;4.28;;;2.90;;
13592;SDS011;6867;50.998;4.250;2022-07-06T08:10:14;5.03;;;2.38;;
13592;SDS011;6867;50.998;4.250;2022-07-06T08:12:40;3.25;;;2.38;;
13592;SDS011;6867;50.998;4.250;2022-07-06T08:15:07;4.00;;;2.42;;
13592;SDS011;6867;50.998;4.250;2022-07-06T08:17:34;3.80;;;1.80;;
13592;SDS011;6867;50.998;4.250;2022-07-06T08:20:01;3.17;;;2.00;;
13592;SDS011;6867;50.998;4.250;2022-07-06T08:22:28;3.22;;;2.13;;
13592;SDS011;6867;50.998;4.250;2022-07-06T08:24:56;3.63;;;2.10;;
13592;SDS011;6867;50.998;4.250;2022-07-06T08:27:24;3.58;;;1.95;;
13592;SDS011;6867;50.998;4.250;2022-07-06T08:29:51;4.13;;;2.40;;
13592;SDS011;6867;50.998;4.250;2022-07-06T08:32:17;4.03;;;1.90;;
13592;SDS011;6867;50.998;4.250;2022-07-06T08:34:45;6.35;;;3.30;;
13592;SDS011;6867;50.998;4.250;2022-07-06T08:37:13;4.78;;;3.35;;
13592;SDS011;6867;50.998;4.250;2022-07-06T08:39:39;7.65;;;3.15;;
13592;SDS011;6867;50.998;4.250;2022-07-06T08:42:07;5.70;;;2.97;;
13592;SDS011;6867;50.998;4.250;2022-07-06T08:44:37;6.50;;;3.45;;
13592;SDS011;6867;50.998;4.250;2022-07-06T08:47:05;9.02;;;3.65;;
13592;SDS011;6867;50.998;4.250;2022-07-06T08:49:32;5.60;;;3.17;;
13592;SDS011;6867;50.998;4.250;2022-07-06T08:52:01;6.22;;;4.40;;
13592;SDS011;6867;50.998;4.250;2022-07-06T08:54:30;5.13;;;3.63;;
13592;SDS011;6867;50.998;4.250;2022-07-06T08:56:57;5.78;;;3.92;;
13592;SDS011;6867;50.998;4.250;2022-07-06T08:59:25;6.75;;;3.20;;
13592;SDS011;6867;50.998;4.250;2022-07-06T09:01:54;5.85;;;3.15;;
13592;SDS011;6867;50.998;4.250;2022-07-06T09:04:21;5.90;;;3.65;;
13592;SDS011;6867;50.998;4.250;2022-07-06T09:06:48;5.35;;;3.50;;
13592;SDS011;6867;50.998;4.250;2022-07-06T09:09:18;5.03;;;3.70;;
13592;SDS011;6867;50.998;4.250;2022-07-06T09:11:46;7.90;;;3.25;;
13592;SDS011;6867;50.998;4.250;2022-07-06T09:14:13;4.78;;;3.42;;
13592;SDS011;6867;50.998;4.250;2022-07-06T09:16:40;6.85;;;3.13;;
13592;SDS011;6867;50.998;4.250;2022-07-06T09:19:09;7.35;;;2.90;;
13592;SDS011;6867;50.998;4.250;2022-07-06T09:21:37;6.75;;;3.28;;
13592;SDS011;6867;50.998;4.250;2022-07-06T09:24:06;3.50;;;2.92;;
13592;SDS011;6867;50.998;4.250;2022-07-06T09:26:34;4.15;;;2.78;;
13592;SDS011;6867;50.998;4.250;2022-07-06T09:29:01;7.28;;;2.92;;
13592;SDS011;6867;50.998;4.250;2022-07-06T09:31:28;8.15;;;3.17;;
13592;SDS011;6867;50.998;4.250;2022-07-06T09:33:55;6.28;;;2.95;;
13592;SDS011;6867;50.998;4.250;2022-07-06T09:36:38;7.32;;;3.80;;
13592;SDS011;6867;50.998;4.250;2022-07-06T09:39:20;5.93;;;3.50;;
13592;SDS011;6867;50.998;4.250;2022-07-06T09:41:48;5.05;;;3.15;;
13592;SDS011;6867;50.998;4.250;2022-07-06T09:44:22;7.53;;;3.72;;
13592;SDS011;6867;50.998;4.250;2022-07-06T09:46:50;5.30;;;3.20;;
13592;SDS011;6867;50.998;4.250;2022-07-06T09:49:18;5.35;;;3.63;;
13592;SDS011;6867;50.998;4.250;2022-07-06T09:51:47;6.40;;;3.75;;
13592;SDS011;6867;50.998;4.250;2022-07-06T09:54:15;8.45;;;3.90;;
13592;SDS011;6867;50.998;4.250;2022-07-06T09:56:43;8.00;;;3.88;;
13592;SDS011;6867;50.998;4.250;2022-07-06T09:59:17;7.57;;;3.88;;
13592;SDS011;6867;50.998;4.250;2022-07-06T10:01:46;5.90;;;3.55;;
13592;SDS011;6867;50.998;4.250;2022-07-06T10:04:16;5.45;;;3.78;;
13592;SDS011;6867;50.998;4.250;2022-07-06T10:06:45;6.82;;;4.05;;
13592;SDS011;6867;50.998;4.250;2022-07-06T10:09:14;6.22;;;3.42;;
13592;SDS011;6867;50.998;4.250;2022-07-06T10:11:44;4.38;;;3.15;;
13592;SDS011;6867;50.998;4.250;2022-07-06T10:14:15;4.75;;;2.83;;
13592;SDS011;6867;50.998;4.250;2022-07-06T10:16:44;6.88;;;3.42;;
13592;SDS011;6867;50.998;4.250;2022-07-06T10:19:13;6.68;;;4.10;;
13592;SDS011;6867;50.998;4.250;2022-07-06T10:21:40;8.43;;;4.13;;
13592;SDS011;6867;50.998;4.250;2022-07-06T10:24:08;3.75;;;2.95;;
13592;SDS011;6867;50.998;4.250;2022-07-06T10:26:37;9.48;;;4.18;;
13592;SDS011;6867;50.998;4.250;2022-07-06T10:29:05;8.35;;;3.67;;
13592;SDS011;6867;50.998;4.250;2022-07-06T10:31:33;6.05;;;3.70;;
13592;SDS011;6867;50.998;4.250;2022-07-06T10:34:04;7.20;;;3.67;;
13592;SDS011;6867;50.998;4.250;2022-07-06T10:36:36;5.80;;;3.60;;
13592;SDS011;6867;50.998;4.250;2022-07-06T10:39:03;3.78;;;3.17;;
13592;SDS011;6867;50.998;4.250;2022-07-06T10:41:52;5.25;;;3.42;;
13592;SDS011;6867;50.998;4.250;2022-07-06T10:44:18;7.55;;;3.55;;
13592;SDS011;6867;50.998;4.250;2022-07-06T10:46:50;7.95;;;4.57;;
13592;SDS011;6867;50.998;4.250;2022-07-06T10:49:19;7.75;;;4.00;;
13592;SDS011;6867;50.998;4.250;2022-07-06T10:51:47;5.45;;;3.90;;
13592;SDS011;6867;50.998;4.250;2022-07-06T10:54:14;7.45;;;4.40;;
13592;SDS011;6867;50.998;4.250;2022-07-06T10:56:42;5.35;;;3.72;;
13592;SDS011;6867;50.998;4.250;2022-07-06T10:59:12;5.72;;;3.75;;
13592;SDS011;6867;50.998;4.250;2022-07-06T11:01:40;5.20;;;4.25;;
13592;SDS011;6867;50.998;4.250;2022-07-06T11:04:30;4.18;;;3.70;;
13592;SDS011;6867;50.998;4.250;2022-07-06T11:06:57;7.28;;;4.15;;
13592;SDS011;6867;50.998;4.250;2022-07-06T11:09:33;4.65;;;4.10;;
13592;SDS011;6867;50.998;4.250;2022-07-06T11:12:09;5.15;;;3.63;;
13592;SDS011;6867;50.998;4.250;2022-07-06T11:14:40;7.28;;;3.60;;
13592;SDS011;6867;50.998;4.250;2022-07-06T11:17:06;6.18;;;3.58;;
13592;SDS011;6867;50.998;4.250;2022-07-06T11:19:35;7.50;;;3.90;;
13592;SDS011;6867;50.998;4.250;2022-07-06T11:22:05;3.40;;;3.10;;
13592;SDS011;6867;50.998;4.250;2022-07-06T11:24:34;6.78;;;3.38;;
13592;SDS011;6867;50.998;4.250;2022-07-06T11:27:02;5.80;;;2.88;;
13592;SDS011;6867;50.998;4.250;2022-07-06T11:29:30;9.00;;;3.58;;
13592;SDS011;6867;50.998;4.250;2022-07-06T11:31:58;3.40;;;2.78;;
13592;SDS011;6867;50.998;4.250;2022-07-06T11:34:29;4.00;;;2.45;;
13592;SDS011;6867;50.998;4.250;2022-07-06T11:36:57;4.50;;;3.10;;
13592;SDS011;6867;50.998;4.250;2022-07-06T11:39:26;4.40;;;2.20;;
13592;SDS011;6867;50.998;4.250;2022-07-06T11:41:54;4.60;;;3.20;;
13592;SDS011;6867;50.998;4.250;2022-07-06T11:44:21;4.82;;;2.83;;
13592;SDS011;6867;50.998;4.250;2022-07-06T11:46:47;5.28;;;2.95;;
13592;SDS011;6867;50.998;4.250;2022-07-06T11:49:16;3.40;;;2.90;;
13592;SDS011;6867;50.998;4.250;2022-07-06T11:51:45;6.50;;;3.20;;
13592;SDS011;6867;50.998;4.250;2022-07-06T11:54:13;4.43;;;2.50;;
13592;SDS011;6867;50.998;4.250;2022-07-06T11:56:45;5.53;;;2.58;;
13592;SDS011;6867;50.998;4.250;2022-07-06T11:59:12;4.38;;;2.63;;
13592;SDS011;6867;50.998;4.250;2022-07-06T12:01:42;3.88;;;2.60;;
13592;SDS011;6867;50.998;4.250;2022-07-06T12:04:09;3.40;;;2.35;;
13592;SDS011;6867;50.998;4.250;2022-07-06T12:06:38;2.85;;;2.33;;
13592;SDS011;6867;50.998;4.250;2022-07-06T12:09:05;3.40;;;2.20;;
13592;SDS011;6867;50.998;4.250;2022-07-06T12:11:33;5.20;;;2.25;;
13592;SDS011;6867;50.998;4.250;2022-07-06T12:14:01;4.53;;;2.08;;
13592;SDS011;6867;50.998;4.250;2022-07-06T12:16:29;4.35;;;2.20;;
13592;SDS011;6867;50.998;4.250;2022-07-06T12:18:58;4.10;;;2.40;;
13592;SDS011;6867;50.998;4.250;2022-07-06T12:21:25;3.67;;;2.45;;
13592;SDS011;6867;50.998;4.250;2022-07-06T12:23:53;6.40;;;2.10;;
13592;SDS011;6867;50.998;4.250;2022-07-06T12:26:21;3.28;;;2.08;;
13592;SDS011;6867;50.998;4.250;2022-07-06T12:29:00;2.17;;;1.70;;
13592;SDS011;6867;50.998;4.250;2022-07-06T12:31:30;2.35;;;1.65;;
13592;SDS011;6867;50.998;4.250;2022-07-06T12:33:58;5.95;;;2.03;;
13592;SDS011;6867;50.998;4.250;2022-07-06T12:36:25;4.18;;;2.05;;
13592;SDS011;6867;50.998;4.250;2022-07-06T12:38:53;2.97;;;1.70;;
13592;SDS011;6867;50.998;4.250;2022-07-06T12:41:27;1.88;;;1.65;;
13592;SDS011;6867;50.998;4.250;2022-07-06T12:44:02;2.60;;;2.10;;
13592;SDS011;6867;50.998;4.250;2022-07-06T12:46:32;3.45;;;1.77;;
13592;SDS011;6867;50.998;4.250;2022-07-06T12:49:01;4.60;;;2.00;;
13592;SDS011;6867;50.998;4.250;2022-07-06T12:51:29;2.58;;;1.80;;
13592;SDS011;6867;50.998;4.250;2022-07-06T12:54:16;4.00;;;1.80;;
13592;SDS011;6867;50.998;4.250;2022-07-06T12:56:56;2.65;;;1.73;;
13592;SDS011;6867;50.998;4.250;2022-07-06T12:59:31;2.70;;;1.67;;
13592;SDS011;6867;50.998;4.250;2022-07-06T13:01:59;5.30;;;2.25;;
13592;SDS011;6867;50.998;4.250;2022-07-06T13:04:27;1.70;;;1.52;;
13592;SDS011;6867;50.998;4.250;2022-07-06T13:06:55;5.70;;;2.00;;
13592;SDS011;6867;50.998;4.250;2022-07-06T13:09:23;3.38;;;2.20;;
13592;SDS011;6867;50.998;4.250;2022-07-06T13:11:51;4.43;;;1.92;;
13592;SDS011;6867;50.998;4.250;2022-07-06T13:14:17;4.18;;;1.83;;
13592;SDS011;6867;50.998;4.250;2022-07-06T13:16:45;3.70;;;1.90;;
13592;SDS011;6867;50.998;4.250;2022-07-06T13:19:13;2.67;;;1.90;;
13592;SDS011;6867;50.998;4.250;2022-07-06T13:21:41;2.80;;;1.60;;
13592;SDS011;6867;50.998;4.250;2022-07-06T13:24:09;5.88;;;1.75;;
13592;SDS011;6867;50.998;4.250;2022-07-06T13:26:38;4.00;;;1.90;;
13592;SDS011;6867;50.998;4.250;2022-07-06T13:29:05;5.30;;;2.00;;
13592;SDS011;6867;50.998;4.250;2022-07-06T13:31:32;3.75;;;2.03;;
13592;SDS011;6867;50.998;4.250;2022-07-06T13:33:58;4.97;;;2.25;;
13592;SDS011;6867;50.998;4.250;2022-07-06T13:36:25;3.38;;;1.90;;
13592;SDS011;6867;50.998;4.250;2022-07-06T13:38:52;2.88;;;1.55;;
13592;SDS011;6867;50.998;4.250;2022-07-06T13:41:19;4.45;;;1.70;;
13592;SDS011;6867;50.998;4.250;2022-07-06T13:43:47;2.15;;;1.70;;
13592;SDS011;6867;50.998;4.250;2022-07-06T13:46:13;3.22;;;1.70;;
13592;SDS011;6867;50.998;4.250;2022-07-06T13:48:41;1.67;;;1.50;;
13592;SDS011;6867;50.998;4.250;2022-07-06T13:51:09;2.03;;;1.80;;
13592;SDS011;6867;50.998;4.250;2022-07-06T13:53:36;4.40;;;1.85;;
13592;SDS011;6867;50.998;4.250;2022-07-06T13:56:03;4.00;;;1.88;;
13592;SDS011;6867;50.998;4.250;2022-07-06T13:58:30;2.67;;;1.77;;
13592;SDS011;6867;50.998;4.250;2022-07-06T14:00:58;2.72;;;1.92;;
13592;SDS011;6867;50.998;4.250;2022-07-06T14:03:24;5.90;;;1.75;;
13592;SDS011;6867;50.998;4.250;2022-07-06T14:05:54;1.85;;;1.50;;
13592;SDS011;6867;50.998;4.250;2022-07-06T14:08:21;2.72;;;1.70;;
13592;SDS011;6867;50.998;4.250;2022-07-06T14:10:49;3.92;;;2.00;;
13592;SDS011;6867;50.998;4.250;2022-07-06T14:13:16;6.13;;;2.30;;
13592;SDS011;6867;50.998;4.250;2022-07-06T14:15:43;3.65;;;2.20;;
13592;SDS011;6867;50.998;4.250;2022-07-06T14:18:11;3.67;;;1.80;;
13592;SDS011;6867;50.998;4.250;2022-07-06T14:20:39;2.00;;;1.38;;
13592;SDS011;6867;50.998;4.250;2022-07-06T14:23:07;3.65;;;1.80;;
13592;SDS011;6867;50.998;4.250;2022-07-06T14:25:34;3.35;;;1.77;;
13592;SDS011;6867;50.998;4.250;2022-07-06T14:28:00;2.22;;;1.80;;
13592;SDS011;6867;50.998;4.250;2022-07-06T14:30:28;2.75;;;1.60;;
13592;SDS011;6867;50.998;4.250;2022-07-06T14:32:55;3.13;;;1.80;;
13592;SDS011;6867;50.998;4.250;2022-07-06T14:35:23;2.38;;;1.63;;
13592;SDS011;6867;50.998;4.250;2022-07-06T14:37:50;4.57;;;1.65;;
13592;SDS011;6867;50.998;4.250;2022-07-06T14:40:17;2.35;;;1.70;;
13592;SDS011;6867;50.998;4.250;2022-07-06T14:42:44;4.63;;;2.10;;
13592;SDS011;6867;50.998;4.250;2022-07-06T14:45:11;3.47;;;1.90;;
13592;SDS011;6867;50.998;4.250;2022-07-06T14:47:37;4.25;;;2.28;;
13592;SDS011;6867;50.998;4.250;2022-07-06T14:50:04;4.05;;;1.85;;
13592;SDS011;6867;50.998;4.250;2022-07-06T14:52:33;6.18;;;2.30;;
13592;SDS011;6867;50.998;4.250;2022-07-06T14:54:59;2.85;;;1.95;;
13592;SDS011;6867;50.998;4.250;2022-07-06T14:57:26;1.77;;;1.67;;
13592;SDS011;6867;50.998;4.250;2022-07-06T14:59:53;4.15;;;2.38;;
13592;SDS011;6867;50.998;4.250;2022-07-06T15:02:19;4.35;;;2.30;;
13592;SDS011;6867;50.998;4.250;2022-07-06T15:04:46;3.25;;;1.90;;